Time;durP1;ratioP1;P1;durP2;ratioP2;P2;SDS_P1;SDS_P2;PMS_P1;PMS_P2;Temp;Humidity;BMP_temperature;BMP_pressure;BME280_temperature;BME280_humidity;BME280_pressure;Samples;Min_cycle;Max_cycle;Signal;HPM_P1;HPM_P2
2022/07/23 00:01:24;;;;;;;20.33;13.15;;;16.90;99.90;;;;;;5096228;28;20249;-65
2022/07/23 00:03:51;;;;;;;21.13;13.07;;;16.80;99.90;;;;;;5096306;28;20173;-65
2022/07/23 00:06:17;;;;;;;22.35;14.20;;;16.80;99.90;;;;;;5094865;28;20673;-64
2022/07/23 00:08:43;;;;;;;18.02;13.07;;;16.80;99.90;;;;;;5096210;28;20177;-65
2022/07/23 00:11:09;;;;;;;23.50;13.63;;;16.70;99.90;;;;;;5095874;28;20177;-64
2022/07/23 00:13:35;;;;;;;21.50;14.00;;;16.70;99.90;;;;;;5096166;28;20197;-65
2022/07/23 00:16:01;;;;;;;21.88;13.70;;;16.70;99.90;;;;;;5095948;28;20165;-65
2022/07/23 00:18:27;;;;;;;20.52;13.65;;;16.60;99.90;;;;;;5095878;28;20200;-64
2022/07/23 00:20:52;;;;;;;26.25;14.35;;;16.50;99.90;;;;;;5094536;28;20181;-65
2022/07/23 00:23:18;;;;;;;21.13;13.93;;;16.50;99.90;;;;;;5095702;28;20292;-64
2022/07/23 00:25:47;;;;;;;21.92;13.15;;;16.40;99.90;;;;;;5095517;28;20157;-65
2022/07/23 00:28:13;;;;;;;19.23;13.35;;;16.40;99.90;;;;;;5095728;28;20208;-65
2022/07/23 00:30:39;;;;;;;23.77;14.32;;;16.40;99.90;;;;;;5095667;28;20184;-65
2022/07/23 00:33:07;;;;;;;22.60;13.75;;;16.40;99.90;;;;;;5095633;28;20201;-65
2022/07/23 00:35:35;;;;;;;21.52;15.15;;;16.30;99.90;;;;;;5095760;28;20207;-65
2022/07/23 00:38:03;;;;;;;23.98;14.82;;;16.30;99.90;;;;;;5095820;28;20197;-65
2022/07/23 00:40:29;;;;;;;23.10;15.13;;;16.20;99.90;;;;;;5095581;28;20595;-65
2022/07/23 00:42:55;;;;;;;26.83;15.77;;;16.20;99.90;;;;;;5095497;28;20609;-65
2022/07/23 00:45:21;;;;;;;25.13;15.95;;;16.10;99.90;;;;;;5094144;28;20197;-65
2022/07/23 00:47:47;;;;;;;26.60;16.38;;;16.10;99.90;;;;;;5095651;28;20173;-65
2022/07/23 00:50:14;;;;;;;22.95;15.98;;;16.20;99.90;;;;;;5095235;28;20227;-65
2022/07/23 00:52:40;;;;;;;27.65;15.88;;;16.20;99.90;;;;;;5095125;28;20222;-65
2022/07/23 00:55:08;;;;;;;27.75;15.48;;;16.20;99.90;;;;;;5094785;28;20180;-65
2022/07/23 00:57:34;;;;;;;26.10;16.33;;;16.20;99.90;;;;;;5095386;28;20248;-65
2022/07/23 01:00:00;;;;;;;22.02;16.27;;;16.20;99.90;;;;;;5095292;28;20181;-65
2022/07/23 01:02:26;;;;;;;25.75;16.45;;;16.20;99.90;;;;;;5094978;28;20189;-65
2022/07/23 01:04:52;;;;;;;31.05;16.98;;;16.20;99.90;;;;;;5095381;28;20664;-65
2022/07/23 01:07:19;;;;;;;31.45;19.48;;;16.20;99.90;;;;;;5095008;28;20256;-65
2022/07/23 01:09:45;;;;;;;30.00;19.02;;;16.20;99.90;;;;;;5096024;28;20173;-65
2022/07/23 01:12:12;;;;;;;32.28;19.63;;;16.10;99.90;;;;;;5095213;28;20573;-65
2022/07/23 01:14:38;;;;;;;32.55;19.55;;;16.10;99.90;;;;;;5094806;28;20179;-65
2022/07/23 01:17:04;;;;;;;36.35;20.63;;;16.10;99.90;;;;;;5094817;28;20169;-65
2022/07/23 01:19:30;;;;;;;35.85;21.25;;;16.10;99.90;;;;;;5094589;28;20576;-65
2022/07/23 01:21:57;;;;;;;36.13;20.73;;;16.10;99.90;;;;;;5094649;28;20185;-65
2022/07/23 01:24:23;;;;;;;32.45;21.35;;;16.10;99.90;;;;;;5094615;28;20268;-65
2022/07/23 01:26:50;;;;;;;33.85;20.95;;;16.10;99.90;;;;;;5094299;28;20169;-65
2022/07/23 01:29:16;;;;;;;33.05;20.25;;;16.10;99.90;;;;;;5094819;28;20199;-65
2022/07/23 01:31:42;;;;;;;35.50;20.98;;;16.10;99.90;;;;;;5094730;28;20536;-65
2022/07/23 01:34:09;;;;;;;33.50;21.63;;;16.10;99.90;;;;;;5093186;28;20206;-65
2022/07/23 01:36:35;;;;;;;34.85;20.75;;;16.10;99.90;;;;;;5094475;28;20210;-65
2022/07/23 01:39:01;;;;;;;37.78;22.42;;;16.10;99.90;;;;;;5094301;28;20193;-65
2022/07/23 01:41:26;;;;;;;38.30;23.40;;;16.10;99.90;;;;;;5094065;28;20172;-65
2022/07/23 01:43:52;;;;;;;39.55;21.98;;;16.10;99.90;;;;;;5094600;28;20176;-66
2022/07/23 01:46:18;;;;;;;42.40;22.92;;;16.10;99.90;;;;;;5093210;28;20207;-65
2022/07/23 01:48:44;;;;;;;41.47;22.33;;;16.10;99.90;;;;;;5094608;28;20197;-65
2022/07/23 01:51:10;;;;;;;44.47;25.13;;;16.10;99.90;;;;;;5094496;28;20172;-65
2022/07/23 01:53:35;;;;;;;41.92;23.88;;;16.10;99.90;;;;;;5093970;28;20270;-65
2022/07/23 01:56:03;;;;;;;35.60;21.45;;;16.00;99.90;;;;;;5093817;28;20173;-65
2022/07/23 01:58:29;;;;;;;30.65;20.45;;;16.00;99.90;;;;;;5094085;28;20249;-65
2022/07/23 02:00:55;;;;;;;40.38;21.92;;;16.10;99.90;;;;;;5094172;28;20176;-65
2022/07/23 02:03:22;;;;;;;35.15;21.35;;;16.00;99.90;;;;;;5093969;28;20230;-64
2022/07/23 02:05:48;;;;;;;37.67;21.75;;;16.00;99.90;;;;;;5093174;28;20661;-65
2022/07/23 02:08:15;;;;;;;42.63;22.08;;;16.00;99.90;;;;;;5094141;28;20188;-65
2022/07/23 02:10:41;;;;;;;37.42;21.88;;;16.00;99.90;;;;;;5093617;28;20196;-64
2022/07/23 02:13:07;;;;;;;38.63;21.60;;;16.00;99.90;;;;;;5093817;28;20241;-64
2022/07/23 02:15:33;;;;;;;35.17;20.08;;;16.00;99.90;;;;;;5093807;28;20180;-64
2022/07/23 02:17:58;;;;;;;35.97;21.70;;;16.00;99.90;;;;;;5093731;28;20216;-65
2022/07/23 02:20:25;;;;;;;37.50;22.75;;;16.00;99.90;;;;;;5093707;28;20173;-65
2022/07/23 02:22:51;;;;;;;38.78;21.60;;;16.00;99.90;;;;;;5092184;28;20216;-65
2022/07/23 02:25:17;;;;;;;33.55;21.83;;;15.90;99.90;;;;;;5094035;28;20542;-65
2022/07/23 02:27:43;;;;;;;34.95;21.08;;;15.90;99.90;;;;;;5093327;28;20165;-64
2022/07/23 02:30:09;;;;;;;38.22;21.50;;;15.90;99.90;;;;;;5093637;28;20167;-65
2022/07/23 02:32:35;;;;;;;42.35;23.83;;;15.90;99.90;;;;;;5093422;28;20194;-65
2022/07/23 02:35:02;;;;;;;33.08;21.15;;;15.80;99.90;;;;;;5093718;28;20223;-65
2022/07/23 02:37:28;;;;;;;32.83;20.10;;;15.80;99.90;;;;;;5093442;28;20200;-65
2022/07/23 02:39:54;;;;;;;34.50;22.52;;;15.80;99.90;;;;;;5093578;28;20200;-65
2022/07/23 02:42:20;;;;;;;34.33;20.40;;;15.80;99.90;;;;;;5093303;28;20212;-65
2022/07/23 02:44:46;;;;;;;33.85;20.75;;;15.80;99.90;;;;;;5093802;28;20169;-65
2022/07/23 02:47:11;;;;;;;36.60;22.80;;;15.90;99.90;;;;;;5093459;28;20175;-65
2022/07/23 02:49:37;;;;;;;36.85;23.25;;;15.80;99.90;;;;;;5094134;28;20184;-64
2022/07/23 02:52:03;;;;;;;39.60;23.60;;;15.80;99.90;;;;;;5093444;28;20192;-65
2022/07/23 02:54:29;;;;;;;41.65;23.55;;;15.70;99.90;;;;;;5093423;28;20603;-65
2022/07/23 02:56:54;;;;;;;37.83;23.23;;;15.70;99.90;;;;;;5093307;28;20288;-65
2022/07/23 02:59:20;;;;;;;42.55;23.20;;;15.70;99.90;;;;;;5093283;28;20205;-65
2022/07/23 03:01:46;;;;;;;41.08;23.52;;;15.70;99.90;;;;;;5093272;28;20189;-65
2022/07/23 03:04:12;;;;;;;38.70;23.52;;;15.70;99.90;;;;;;5093253;28;20540;-65
2022/07/23 03:06:38;;;;;;;39.75;22.17;;;15.70;99.90;;;;;;5091994;28;20165;-65
2022/07/23 03:09:06;;;;;;;35.70;21.52;;;15.70;99.90;;;;;;5093318;28;20200;-65
2022/07/23 03:11:32;;;;;;;37.38;21.98;;;15.70;99.90;;;;;;5092966;28;20177;-65
2022/07/23 03:13:57;;;;;;;34.83;21.30;;;15.70;99.90;;;;;;5093246;28;20181;-65
2022/07/23 03:16:23;;;;;;;33.28;20.95;;;15.70;99.90;;;;;;5094388;28;20248;-65
2022/07/23 03:18:49;;;;;;;36.83;21.35;;;15.60;99.90;;;;;;5097090;28;20209;-65
2022/07/23 03:21:15;;;;;;;32.58;20.20;;;15.60;99.90;;;;;;5097116;28;20587;-65
2022/07/23 03:23:40;;;;;;;33.03;21.08;;;15.60;99.90;;;;;;5097013;28;20197;-65
2022/07/23 03:26:06;;;;;;;35.22;20.63;;;15.50;99.90;;;;;;5097085;28;20154;-66
2022/07/23 03:28:32;;;;;;;37.47;22.10;;;15.50;99.90;;;;;;5097798;28;20177;-67
2022/07/23 03:30:58;;;;;;;31.00;19.90;;;15.50;99.90;;;;;;5097804;28;20630;-64
2022/07/23 03:33:24;;;;;;;38.78;21.90;;;15.50;99.90;;;;;;5096854;28;20214;-63
2022/07/23 03:35:49;;;;;;;35.92;22.13;;;15.50;99.90;;;;;;5096805;28;20200;-63
2022/07/23 03:38:16;;;;;;;33.70;20.50;;;15.40;99.90;;;;;;5096938;28;20208;-63
2022/07/23 03:40:42;;;;;;;32.70;20.77;;;15.40;99.90;;;;;;5096768;28;20169;-64
2022/07/23 03:43:07;;;;;;;28.75;19.75;;;15.30;99.90;;;;;;5096583;28;20665;-63
2022/07/23 03:45:33;;;;;;;37.05;21.40;;;15.30;99.90;;;;;;5096740;28;20174;-63
2022/07/23 03:47:59;;;;;;;36.22;21.42;;;15.30;99.90;;;;;;5097240;28;20168;-63
2022/07/23 03:50:25;;;;;;;34.08;20.95;;;15.30;99.90;;;;;;5097016;28;20169;-63
2022/07/23 03:52:52;;;;;;;32.80;19.27;;;15.30;99.90;;;;;;5095516;28;20215;-64
2022/07/23 03:55:17;;;;;;;30.35;19.65;;;15.30;99.90;;;;;;5096630;28;20680;-63
2022/07/23 03:57:44;;;;;;;33.20;21.15;;;15.20;99.90;;;;;;5096050;28;20182;-63
2022/07/23 04:00:11;;;;;;;34.72;21.05;;;15.20;99.90;;;;;;5096293;28;20172;-63
2022/07/23 04:02:38;;;;;;;36.78;20.65;;;15.20;99.90;;;;;;5096082;28;20280;-64
2022/07/23 04:05:04;;;;;;;36.58;19.83;;;15.10;99.90;;;;;;5096564;28;20165;-63
2022/07/23 04:07:30;;;;;;;30.08;19.00;;;15.10;99.90;;;;;;5096225;28;20180;-63
2022/07/23 04:09:56;;;;;;;39.22;21.60;;;15.10;99.90;;;;;;5096353;28;20665;-63
2022/07/23 04:12:23;;;;;;;42.75;23.00;;;15.20;99.90;;;;;;5094479;28;20201;-63
2022/07/23 04:14:49;;;;;;;33.13;20.13;;;15.20;99.90;;;;;;5094761;28;20210;-63
2022/07/23 04:17:15;;;;;;;47.28;23.92;;;15.10;99.90;;;;;;5096187;28;20591;-63
2022/07/23 04:19:41;;;;;;;33.13;20.00;;;15.10;99.90;;;;;;5095872;28;20276;-63
2022/07/23 04:22:07;;;;;;;34.17;20.92;;;15.10;99.90;;;;;;5095849;28;20271;-63
2022/07/23 04:24:34;;;;;;;39.15;23.00;;;15.10;99.90;;;;;;5094622;28;20555;-63
2022/07/23 04:27:00;;;;;;;35.13;21.08;;;15.10;99.90;;;;;;5095674;28;20153;-63
2022/07/23 04:29:25;;;;;;;33.50;21.80;;;15.20;99.90;;;;;;5094903;28;20177;-63
2022/07/23 04:31:51;;;;;;;44.63;23.73;;;15.20;99.90;;;;;;5095929;28;20242;-67
2022/07/23 04:34:17;;;;;;;34.70;22.17;;;15.20;99.90;;;;;;5095625;28;20256;-67
2022/07/23 04:36:43;;;;;;;32.72;20.70;;;15.20;99.90;;;;;;5102883;28;20599;-67
2022/07/23 04:39:09;;;;;;;36.35;21.70;;;15.30;99.90;;;;;;5102117;28;20669;-67
2022/07/23 04:41:35;;;;;;;41.05;21.95;;;15.20;99.90;;;;;;5098311;28;20193;-67
2022/07/23 04:44:01;;;;;;;29.67;20.50;;;15.20;99.90;;;;;;5103080;28;20207;-67
2022/07/23 04:46:27;;;;;;;31.58;20.83;;;15.30;99.90;;;;;;5104919;28;20637;-66
2022/07/23 04:48:53;;;;;;;38.35;22.73;;;15.40;99.90;;;;;;5103275;28;20177;-67
2022/07/23 04:51:19;;;;;;;35.20;22.20;;;15.40;99.90;;;;;;5103097;28;20181;-66
2022/07/23 04:53:45;;;;;;;38.65;23.35;;;15.40;99.90;;;;;;5103125;28;20204;-67
2022/07/23 04:56:11;;;;;;;35.42;21.58;;;15.40;99.90;;;;;;5100633;28;20189;-67
2022/07/23 04:58:36;;;;;;;42.05;22.38;;;15.40;99.90;;;;;;5111626;28;20209;-68
2022/07/23 05:01:02;;;;;;;30.50;19.75;;;15.40;99.90;;;;;;5115535;28;20173;-67
2022/07/23 05:03:28;;;;;;;40.25;22.45;;;15.40;99.90;;;;;;5114068;28;20188;-67
2022/07/23 05:05:54;;;;;;;34.13;21.58;;;15.40;99.90;;;;;;5113520;28;20172;-66
2022/07/23 05:08:20;;;;;;;32.97;21.58;;;15.30;99.90;;;;;;5106047;28;20181;-67
2022/07/23 05:10:46;;;;;;;35.22;19.95;;;15.40;99.90;;;;;;5106005;28;20684;-67
2022/07/23 05:13:11;;;;;;;28.33;19.65;;;15.40;99.90;;;;;;5108370;28;20606;-67
2022/07/23 05:15:37;;;;;;;39.42;21.85;;;15.40;99.90;;;;;;5104551;28;20208;-67
2022/07/23 05:18:03;;;;;;;35.50;20.85;;;15.30;99.90;;;;;;5115093;28;20225;-67
2022/07/23 05:20:29;;;;;;;33.75;21.25;;;15.30;99.90;;;;;;5115050;28;20168;-67
2022/07/23 05:22:54;;;;;;;42.13;22.83;;;15.30;99.90;;;;;;5111592;28;20661;-68
2022/07/23 05:25:20;;;;;;;34.10;22.05;;;15.30;99.90;;;;;;5096275;28;20182;-68
2022/07/23 05:27:46;;;;;;;37.47;23.60;;;15.20;99.90;;;;;;5097235;28;20516;-68
2022/07/23 05:30:12;;;;;;;46.17;23.23;;;15.10;99.90;;;;;;5097772;28;20176;-67
2022/07/23 05:32:38;;;;;;;36.92;22.30;;;15.10;99.90;;;;;;5094961;28;20193;-67
2022/07/23 05:35:07;;;;;;;44.42;23.08;;;15.10;99.90;;;;;;5094958;28;20165;-67
2022/07/23 05:37:33;;;;;;;49.25;24.25;;;15.00;99.90;;;;;;5094438;28;20165;-68
2022/07/23 05:40:07;;;;;;;35.22;21.70;;;15.00;99.90;;;;;;5094386;28;20212;-67
2022/07/23 05:42:38;;;;;;;34.05;21.50;;;15.00;99.90;;;;;;5093903;28;20199;-67
2022/07/23 05:45:05;;;;;;;42.55;22.33;;;15.10;99.90;;;;;;5093378;28;20172;-68
2022/07/23 05:47:45;;;;;;;40.88;23.08;;;15.10;99.90;;;;;;5094204;28;20170;-67
2022/07/23 05:50:11;;;;;;;44.92;24.83;;;15.20;99.90;;;;;;5092973;28;20247;-67
2022/07/23 05:52:38;;;;;;;50.35;25.63;;;15.20;99.90;;;;;;5094120;28;20246;-67
2022/07/23 05:55:04;;;;;;;48.80;26.17;;;15.10;99.90;;;;;;5094085;28;20173;-67
2022/07/23 05:57:30;;;;;;;40.65;24.30;;;15.00;99.90;;;;;;5093785;28;20572;-67
2022/07/23 05:59:56;;;;;;;54.78;27.20;;;15.00;99.90;;;;;;5092653;28;20266;-67
2022/07/23 06:02:21;;;;;;;48.95;26.60;;;15.10;99.90;;;;;;5093924;28;20200;-68
2022/07/23 06:04:47;;;;;;;48.28;25.85;;;15.10;99.90;;;;;;5094285;28;20165;-67
2022/07/23 06:07:13;;;;;;;40.55;23.38;;;15.20;99.90;;;;;;5094468;28;20177;-67
2022/07/23 06:09:39;;;;;;;47.65;24.92;;;15.30;99.90;;;;;;5093864;28;20177;-67
2022/07/23 06:12:05;;;;;;;58.50;27.98;;;15.40;99.90;;;;;;5092296;28;20274;-67
2022/07/23 06:14:30;;;;;;;46.60;26.45;;;15.40;99.90;;;;;;5094383;28;20681;-67
2022/07/23 06:16:56;;;;;;;51.65;26.80;;;15.30;99.90;;;;;;5094088;28;20205;-67
2022/07/23 06:19:22;;;;;;;52.70;27.73;;;15.20;99.90;;;;;;5093646;28;20578;-67
2022/07/23 06:21:49;;;;;;;53.80;28.08;;;15.20;99.90;;;;;;5093642;28;20216;-67
2022/07/23 06:24:15;;;;;;;53.38;28.88;;;15.20;99.90;;;;;;5093674;28;20183;-68
2022/07/23 06:26:40;;;;;;;56.03;30.35;;;15.30;99.90;;;;;;5093723;28;20187;-67
2022/07/23 06:29:07;;;;;;;58.78;30.15;;;15.40;99.90;;;;;;5093628;28;20220;-68
2022/07/23 06:31:33;;;;;;;57.70;29.48;;;15.40;99.90;;;;;;5093802;28;20204;-68
2022/07/23 06:33:59;;;;;;;63.72;32.70;;;15.50;99.90;;;;;;5093648;28;20174;-68
2022/07/23 06:36:25;;;;;;;61.72;30.65;;;15.50;99.90;;;;;;5092388;28;20288;-68
2022/07/23 06:38:50;;;;;;;65.88;33.22;;;15.50;99.90;;;;;;5093717;28;20246;-68
2022/07/23 06:41:16;;;;;;;57.95;29.25;;;15.40;99.90;;;;;;5093693;28;20179;-67
2022/07/23 06:43:42;;;;;;;63.65;31.83;;;15.40;99.90;;;;;;5105140;28;20246;-68
2022/07/23 06:46:07;;;;;;;71.13;31.90;;;15.50;99.90;;;;;;5114971;28;20515;-68
2022/07/23 06:48:35;;;;;;;64.75;33.08;;;15.70;99.90;;;;;;5114840;28;20621;-68
2022/07/23 06:51:02;;;;;;;55.30;30.55;;;15.70;99.90;;;;;;5115027;28;20277;-68
2022/07/23 06:53:28;;;;;;;52.92;28.70;;;15.80;99.90;;;;;;5108460;28;20205;-68
2022/07/23 06:55:53;;;;;;;52.42;29.60;;;15.90;99.90;;;;;;5097643;28;20176;-68
2022/07/23 06:58:20;;;;;;;43.53;26.65;;;16.00;99.90;;;;;;5097486;28;20568;-68
2022/07/23 07:00:46;;;;;;;50.15;27.35;;;16.10;99.90;;;;;;5097599;28;20178;-68
2022/07/23 07:03:11;;;;;;;50.28;27.77;;;16.20;99.90;;;;;;5096172;28;20204;-68
2022/07/23 07:05:39;;;;;;;47.17;25.73;;;16.20;99.90;;;;;;5097617;28;20264;-68
2022/07/23 07:08:05;;;;;;;48.33;28.13;;;16.20;99.90;;;;;;5097854;28;20279;-68
2022/07/23 07:10:31;;;;;;;44.03;25.25;;;16.20;99.90;;;;;;5095934;28;20719;-68
2022/07/23 07:12:57;;;;;;;47.40;28.88;;;16.10;99.90;;;;;;5096970;28;20262;-68
2022/07/23 07:15:23;;;;;;;46.03;25.13;;;16.10;99.90;;;;;;5097243;28;20626;-68
2022/07/23 07:17:49;;;;;;;46.15;25.23;;;16.10;99.90;;;;;;5098214;28;20211;-64
2022/07/23 07:20:14;;;;;;;54.85;30.10;;;16.20;99.90;;;;;;5098397;28;20169;-66
2022/07/23 07:22:40;;;;;;;45.42;27.90;;;16.30;99.90;;;;;;5096929;28;20288;-65
2022/07/23 07:25:07;;;;;;;55.75;31.70;;;16.40;99.90;;;;;;5097118;28;20172;-66
2022/07/23 07:27:33;;;;;;;45.63;28.45;;;16.30;99.90;;;;;;5096839;28;20287;-66
2022/07/23 07:29:59;;;;;;;38.95;22.80;;;16.20;99.90;;;;;;5097014;28;20170;-65
2022/07/23 07:32:25;;;;;;;55.97;30.20;;;16.10;99.90;;;;;;5097285;28;20200;-66
2022/07/23 07:34:50;;;;;;;45.58;26.77;;;16.20;99.90;;;;;;5097078;28;20188;-66
2022/07/23 07:37:16;;;;;;;44.70;26.08;;;16.20;99.90;;;;;;5096919;28;20180;-65
2022/07/23 07:39:42;;;;;;;42.88;25.17;;;16.40;99.90;;;;;;5096607;28;20197;-66
2022/07/23 07:42:08;;;;;;;43.95;25.55;;;16.50;99.90;;;;;;5096453;28;20189;-65
2022/07/23 07:44:34;;;;;;;57.47;30.73;;;16.60;99.90;;;;;;5096970;28;20199;-65
2022/07/23 07:46:59;;;;;;;68.35;36.38;;;16.70;99.90;;;;;;5097427;28;20158;-68
2022/07/23 07:49:25;;;;;;;53.15;33.05;;;16.60;99.90;;;;;;5096699;28;20169;-68
2022/07/23 07:51:51;;;;;;;62.05;33.85;;;16.60;99.90;;;;;;5097116;28;20197;-68
2022/07/23 07:54:16;;;;;;;43.88;27.60;;;16.50;99.90;;;;;;5101426;28;20214;-66
2022/07/23 07:56:42;;;;;;;59.40;33.33;;;16.60;99.90;;;;;;5104136;28;20559;-66
2022/07/23 07:59:08;;;;;;;55.15;31.95;;;16.80;99.90;;;;;;5100423;28;20196;-66
2022/07/23 08:01:34;;;;;;;72.30;36.15;;;17.00;99.90;;;;;;5104846;28;20191;-66
2022/07/23 08:04:00;;;;;;;52.05;31.00;;;17.10;99.90;;;;;;5110442;28;20173;-65
2022/07/23 08:06:25;;;;;;;53.08;32.20;;;17.30;99.90;;;;;;5101374;28;20179;-66
2022/07/23 08:08:51;;;;;;;55.97;35.00;;;17.50;99.90;;;;;;5106619;28;20214;-65
2022/07/23 08:11:17;;;;;;;49.83;31.55;;;17.30;99.90;;;;;;5111062;28;20176;-66
2022/07/23 08:13:44;;;;;;;46.72;29.13;;;17.30;99.90;;;;;;5102820;28;20216;-66
2022/07/23 08:16:10;;;;;;;50.38;30.52;;;17.20;99.90;;;;;;5112659;28;20702;-66
2022/07/23 08:18:36;;;;;;;47.03;30.17;;;17.30;99.90;;;;;;5116501;28;20212;-71
2022/07/23 08:21:04;;;;;;;55.67;34.45;;;17.40;99.90;;;;;;5116643;28;20252;-70
2022/07/23 08:23:30;;;;;;;48.38;30.27;;;17.50;99.90;;;;;;5106192;28;20288;-70
2022/07/23 08:25:56;;;;;;;43.85;30.60;;;17.50;99.90;;;;;;5097989;28;20204;-72
2022/07/23 08:28:22;;;;;;;47.10;30.23;;;17.60;99.90;;;;;;5105342;28;20701;-71
2022/07/23 08:30:48;;;;;;;47.83;30.92;;;17.60;99.90;;;;;;5097999;28;20211;-70
2022/07/23 08:33:16;;;;;;;46.65;30.77;;;17.60;99.90;;;;;;5115432;28;20765;-70
2022/07/23 08:35:46;;;;;;;45.58;29.52;;;17.80;99.90;;;;;;5106677;28;20275;-70
2022/07/23 08:38:13;;;;;;;40.70;27.60;;;17.80;99.90;;;;;;5100742;28;20258;-70
2022/07/23 08:40:53;;;;;;;52.53;31.88;;;17.90;99.90;;;;;;5094337;28;20181;-71
2022/07/23 08:43:22;;;;;;;48.97;31.15;;;18.00;99.90;;;;;;5100293;28;20193;-70
2022/07/23 08:45:51;;;;;;;42.13;29.15;;;18.00;99.90;;;;;;5114793;28;20180;-70
2022/07/23 08:48:23;;;;;;;45.97;31.42;;;17.90;99.90;;;;;;5115830;28;20541;-70
2022/07/23 08:50:52;;;;;;;48.13;31.48;;;17.90;99.90;;;;;;5116285;28;20613;-70
2022/07/23 08:53:19;;;;;;;42.92;30.60;;;18.00;99.90;;;;;;5109822;27;20681;-72
2022/07/23 08:55:49;;;;;;;44.40;30.70;;;18.10;99.90;;;;;;5095649;28;20157;-68
2022/07/23 08:58:15;;;;;;;47.90;33.42;;;18.40;99.90;;;;;;5095061;28;20192;-68
2022/07/23 09:00:42;;;;;;;38.08;29.52;;;18.50;99.90;;;;;;5095507;28;20173;-69
2022/07/23 09:03:12;;;;;;;39.63;28.02;;;18.70;99.90;;;;;;5094317;28;20193;-68
2022/07/23 09:05:38;;;;;;;40.65;29.88;;;19.00;99.90;;;;;;5095471;28;20158;-68
2022/07/23 09:08:15;;;;;;;42.63;30.85;;;19.10;99.90;;;;;;5095030;28;20184;-68
2022/07/23 09:10:48;;;;;;;40.97;30.73;;;19.20;99.90;;;;;;5093754;28;20212;-68
2022/07/23 09:13:29;;;;;;;44.50;30.50;;;19.10;99.90;;;;;;5094706;28;20563;-68
2022/07/23 09:15:58;;;;;;;38.40;28.92;;;19.10;99.90;;;;;;5093349;28;20230;-68
2022/07/23 09:18:51;;;;;;;37.95;29.63;;;19.00;99.90;;;;;;5095047;28;20213;-68
2022/07/23 09:21:37;;;;;;;40.72;31.58;;;18.90;99.90;;;;;;5114708;28;20195;-68
2022/07/23 09:24:11;;;;;;;34.70;27.98;;;19.00;99.90;;;;;;5101537;28;20187;-68
2022/07/23 09:26:38;;;;;;;35.60;29.00;;;19.30;99.90;;;;;;5093530;28;20236;-68
2022/07/23 09:29:17;;;;;;;38.78;28.73;;;19.40;99.90;;;;;;5094467;28;20191;-68
2022/07/23 09:31:43;;;;;;;38.60;28.50;;;19.50;99.90;;;;;;5094795;28;20290;-68
2022/07/23 09:34:11;;;;;;;38.15;28.52;;;19.50;99.90;;;;;;5094721;28;20211;-68
2022/07/23 09:36:38;;;;;;;41.25;31.23;;;19.70;99.90;;;;;;5094840;28;20176;-69
2022/07/23 09:39:04;;;;;;;36.47;30.77;;;20.00;99.90;;;;;;5094262;28;20193;-68
2022/07/23 09:41:48;;;;;;;41.60;31.13;;;20.10;99.90;;;;;;5093017;28;20180;-69
2022/07/23 09:44:20;;;;;;;31.52;26.42;;;20.30;99.90;;;;;;5094714;28;20181;-68
2022/07/23 09:46:50;;;;;;;28.10;24.08;;;20.50;99.90;;;;;;5094528;28;20187;-68
2022/07/23 09:49:22;;;;;;;24.80;22.15;;;20.80;99.90;;;;;;5094913;28;20158;-68
2022/07/23 09:51:52;;;;;;;27.00;22.88;;;21.00;99.90;;;;;;5093022;28;20268;-71
2022/07/23 09:54:31;;;;;;;20.48;18.10;;;20.90;99.90;;;;;;5094224;28;20711;-68
2022/07/23 09:56:58;;;;;;;23.70;19.48;;;20.70;99.90;;;;;;5094305;28;20157;-68
2022/07/23 09:59:28;;;;;;;25.77;21.27;;;20.60;99.90;;;;;;5092798;28;20207;-68
2022/07/23 10:01:59;;;;;;;22.75;20.17;;;20.40;99.90;;;;;;5093976;28;20276;-63
2022/07/23 10:04:27;;;;;;;23.80;20.58;;;20.20;99.90;;;;;;5099244;28;20177;-63
2022/07/23 10:06:55;;;;;;;24.08;20.65;;;20.40;99.90;;;;;;5111104;27;20569;-64
2022/07/23 10:09:32;;;;;;;17.65;14.05;;;20.60;99.90;;;;;;5096560;28;20185;-64
2022/07/23 10:12:42;;;;;;;16.02;14.18;;;20.80;99.90;;;;;;5093899;28;20635;-63
2022/07/23 10:14:50;;;;;;;20.75;17.65;;;21.20;99.90;;;;;;5090007;28;20193;-64
2022/07/23 10:17:17;;;;;;;18.73;16.73;;;21.50;99.90;;;;;;5114714;28;20164;-64
2022/07/23 10:19:43;;;;;;;18.40;14.90;;;21.50;99.90;;;;;;5113001;28;20608;-63
2022/07/23 10:22:20;;;;;;;15.82;11.73;;;21.30;99.90;;;;;;5114160;28;20645;-63
2022/07/23 10:25:26;;;;;;;16.45;14.68;;;21.30;99.90;;;;;;5114135;28;20186;-63
2022/07/23 10:28:22;;;;;;;16.75;14.82;;;21.40;99.90;;;;;;5112668;28;20188;-63
2022/07/23 10:30:57;;;;;;;13.38;11.82;;;21.50;99.90;;;;;;5087673;28;20187;-69
2022/07/23 10:33:38;;;;;;;16.05;12.02;;;21.60;99.90;;;;;;5114067;28;20195;-63
2022/07/23 10:36:27;;;;;;;13.95;11.50;;;21.70;99.90;;;;;;5114271;28;20205;-63
2022/07/23 10:39:03;;;;;;;15.63;11.93;;;21.70;99.90;;;;;;5094570;28;20204;-63
2022/07/23 10:41:38;;;;;;;13.15;11.13;;;21.80;99.90;;;;;;5104415;28;20208;-63
2022/07/23 10:44:19;;;;;;;10.48;9.48;;;21.90;99.90;;;;;;5111977;28;20176;-63
2022/07/23 10:49:51;;;;;;;11.13;9.15;;;22.40;99.90;;;;;;5115893;28;20597;-65
2022/07/23 10:52:26;;;;;;;10.30;8.50;;;22.30;99.90;;;;;;5101949;28;20200;-64
2022/07/23 10:55:10;;;;;;;10.82;8.05;;;22.10;99.90;;;;;;5094571;28;20721;-65
2022/07/23 10:57:49;;;;;;;12.25;7.15;;;22.00;99.90;;;;;;5095366;28;20169;-66
2022/07/23 11:00:22;;;;;;;9.40;6.88;;;22.00;99.90;;;;;;5094314;28;20532;-66
2022/07/23 11:02:54;;;;;;;8.45;6.43;;;22.20;99.90;;;;;;5093608;28;20657;-66
2022/07/23 11:05:39;;;;;;;9.50;6.28;;;22.30;99.90;;;;;;5093511;28;20181;-65
2022/07/23 11:08:05;;;;;;;6.85;5.07;;;22.50;99.90;;;;;;5094164;28;20153;-66
2022/07/23 11:10:55;;;;;;;8.02;5.57;;;22.60;99.90;;;;;;5104805;28;20246;-66
2022/07/23 11:13:24;;;;;;;9.77;5.65;;;22.80;99.90;;;;;;5112151;28;20195;-66
2022/07/23 11:16:05;;;;;;;6.93;5.63;;;22.80;99.90;;;;;;5113741;28;20182;-66
2022/07/23 11:18:43;;;;;;;7.00;5.32;;;22.90;99.90;;;;;;5113745;28;20229;-67
2022/07/23 11:21:26;;;;;;;7.25;5.18;;;22.90;99.90;;;;;;5111886;28;20536;-67
2022/07/23 11:24:16;;;;;;;7.93;4.55;;;23.00;99.90;;;;;;5099581;28;20205;-67
2022/07/23 11:26:46;;;;;;;5.57;4.88;;;23.10;99.90;;;;;;5093162;28;20536;-67
2022/07/23 11:29:37;;;;;;;5.10;4.32;;;23.20;99.90;;;;;;5091510;28;20165;-67
2022/07/23 11:32:04;;;;;;;5.43;3.92;;;23.20;99.90;;;;;;5092762;28;20193;-67
2022/07/23 11:34:34;;;;;;;8.27;4.60;;;23.40;99.90;;;;;;5092048;28;20189;-67
2022/07/23 11:37:02;;;;;;;6.97;4.15;;;23.40;99.90;;;;;;5093532;28;20176;-67
2022/07/23 11:39:29;;;;;;;6.68;4.78;;;23.50;99.90;;;;;;5096895;28;20342;-67
2022/07/23 11:41:56;;;;;;;5.88;4.60;;;23.60;99.90;;;;;;5096842;28;20185;-67
2022/07/23 11:44:37;;;;;;;6.40;4.18;;;23.90;99.90;;;;;;5096612;28;20157;-67
2022/07/23 11:47:04;;;;;;;5.95;4.18;;;24.20;99.90;;;;;;5096967;28;20161;-67
2022/07/23 11:49:30;;;;;;;7.72;4.90;;;24.30;99.90;;;;;;5096675;28;20180;-67
2022/07/23 11:52:12;;;;;;;6.55;4.28;;;23.90;99.90;;;;;;5096457;28;20193;-67
2022/07/23 11:54:58;;;;;;;7.20;4.75;;;24.00;99.90;;;;;;5096699;28;20222;-67
2022/07/23 11:57:26;;;;;;;7.18;4.38;;;24.20;99.90;;;;;;5096110;28;20157;-67
2022/07/23 11:59:56;;;;;;;5.05;3.55;;;24.50;99.90;;;;;;5096315;28;20189;-67
2022/07/23 12:02:22;;;;;;;5.70;4.18;;;24.80;99.90;;;;;;5096127;28;20189;-67
2022/07/23 12:04:51;;;;;;;4.85;3.55;;;25.30;99.90;;;;;;5096355;28;20530;-67
2022/07/23 12:07:31;;;;;;;5.88;4.10;;;25.60;99.90;;;;;;5096866;28;20614;-67
2022/07/23 12:10:03;;;;;;;5.55;4.75;;;25.80;99.90;;;;;;5096270;28;20188;-67
2022/07/23 12:12:37;;;;;;;8.23;4.80;;;25.20;99.90;;;;;;5095844;28;20231;-67
2022/07/23 12:15:03;;;;;;;5.28;4.13;;;25.00;99.90;;;;;;5096381;28;20170;-67
2022/07/23 12:17:32;;;;;;;8.25;4.68;;;25.00;99.90;;;;;;5094993;28;20177;-67
2022/07/23 12:20:00;;;;;;;6.00;4.30;;;25.10;99.90;;;;;;5095330;28;20242;-67
2022/07/23 12:22:34;;;;;;;5.30;4.38;;;25.20;99.90;;;;;;5096375;28;20189;-67
2022/07/23 12:25:06;;;;;;;5.15;4.57;;;25.60;99.90;;;;;;5096584;28;20160;-67
2022/07/23 12:27:31;;;;;;;5.90;4.47;;;25.90;99.90;;;;;;5095936;28;20649;-67
2022/07/23 12:29:57;;;;;;;5.45;4.20;;;26.10;99.90;;;;;;5095857;28;20173;-67
2022/07/23 12:32:28;;;;;;;6.13;4.47;;;26.30;99.90;;;;;;5096294;28;20228;-67
2022/07/23 12:35:08;;;;;;;8.02;5.60;;;26.50;99.90;;;;;;5095867;28;20153;-67
2022/07/23 12:37:37;;;;;;;6.40;4.47;;;26.00;99.90;;;;;;5095899;28;20173;-67
2022/07/23 12:40:26;;;;;;;6.82;4.65;;;25.60;99.90;;;;;;5095544;28;20292;-67